createdAt,value
2018-09-08T00:00:41.546Z,100380.00
2018-09-08T00:03:11.749Z,100383.00
2018-09-08T00:05:43.269Z,100383.00
2018-09-08T00:08:15.368Z,100384.00
2018-09-08T00:10:45.684Z,100386.00
2018-09-08T00:13:16.459Z,100385.00
2018-09-08T00:15:51.707Z,100391.00
2018-09-08T00:18:29.348Z,100395.00
2018-09-08T00:21:06.056Z,100392.00
2018-09-08T00:23:42.264Z,100385.00
2018-09-08T00:26:18.252Z,100384.00
2018-09-08T00:28:55.753Z,100390.00
2018-09-08T00:31:26.610Z,100387.00
2018-09-08T00:33:57.380Z,100395.00
2018-09-08T00:36:28.183Z,100403.00
2018-09-08T00:38:59.502Z,100405.00
2018-09-08T00:41:29.746Z,100402.00
2018-09-08T00:43:59.996Z,100403.00
2018-09-08T00:46:30.195Z,100399.00
2018-09-08T00:49:00.478Z,100406.00
2018-09-08T00:51:30.608Z,100410.00
2018-09-08T00:54:01.374Z,100409.00
2018-09-08T00:56:31.652Z,100410.00
2018-09-08T00:59:03.208Z,100410.00
2018-09-08T01:01:35.044Z,100410.00
2018-09-08T01:04:05.762Z,100413.00
2018-09-08T01:06:36.338Z,100409.00
2018-09-08T01:09:08.383Z,100408.00
2018-09-08T01:11:38.481Z,100409.00
2018-09-08T01:14:08.998Z,100412.00
2018-09-08T01:16:39.490Z,100409.00
2018-09-08T01:19:09.849Z,100420.00
2018-09-08T01:21:40.376Z,100415.00
2018-09-08T01:24:11.026Z,100416.00
2018-09-08T01:26:41.218Z,100416.00
2018-09-08T01:29:11.930Z,100425.00
2018-09-08T01:31:42.692Z,100429.00
2018-09-08T01:34:13.478Z,100439.00
2018-09-08T01:36:44.349Z,100430.00
2018-09-08T01:39:15.152Z,100436.00
2018-09-08T01:41:45.363Z,100436.00
2018-09-08T01:44:15.651Z,100438.00
2018-09-08T01:46:45.893Z,100440.00
2018-09-08T01:49:16.585Z,100444.00
2018-09-08T01:51:46.753Z,100443.00
2018-09-08T01:54:17.432Z,100444.00
2018-09-08T01:56:47.632Z,100440.00
2018-09-08T01:59:20.236Z,100447.00
2018-09-08T02:01:50.502Z,100450.00
2018-09-08T02:04:21.248Z,100451.00
2018-09-08T02:06:51.453Z,100453.00
2018-09-08T02:09:22.107Z,100458.00
2018-09-08T02:11:52.312Z,100454.00
2018-09-08T02:14:22.999Z,100457.00
2018-09-08T02:16:53.729Z,100450.00
2018-09-08T02:19:24.103Z,100452.00
2018-09-08T02:21:54.472Z,100455.00
2018-09-08T02:24:25.074Z,100452.00
2018-09-08T02:26:55.940Z,100452.00
2018-09-08T02:29:26.501Z,100454.00
2018-09-08T02:31:57.188Z,100457.00
2018-09-08T02:34:27.462Z,100455.00
2018-09-08T02:36:57.658Z,100455.00
2018-09-08T02:39:28.411Z,100456.00
2018-09-08T02:41:59.096Z,100460.00
2018-09-08T02:44:29.339Z,100458.00
2018-09-08T02:46:59.553Z,100459.00
2018-09-08T02:50:46.806Z,100456.00
2018-09-08T02:53:15.409Z,100457.00
2018-09-08T02:55:43.644Z,100454.00
2018-09-08T02:58:11.687Z,100450.00
2018-09-08T03:00:39.906Z,100459.00
2018-09-08T03:03:07.928Z,100459.00
2018-09-08T03:05:36.169Z,100464.00
2018-09-08T03:08:04.316Z,100467.00
2018-09-08T03:10:32.415Z,100470.00
2018-09-08T03:13:00.453Z,100463.00
2018-09-08T03:15:28.526Z,100464.00
2018-09-08T03:17:56.547Z,100462.00
2018-09-08T03:20:24.737Z,100464.00
2018-09-08T03:22:52.752Z,100469.00
2018-09-08T03:25:20.756Z,100465.00
2018-09-08T03:27:48.958Z,100462.00
2018-09-08T03:30:16.984Z,100468.00
2018-09-08T03:32:45.038Z,100473.00
2018-09-08T03:35:13.048Z,100473.00
2018-09-08T03:37:41.261Z,100471.00
2018-09-08T03:40:09.287Z,100469.00
2018-09-08T03:42:37.597Z,100472.00
2018-09-08T03:45:05.853Z,100477.00
2018-09-08T03:47:33.942Z,100479.00
2018-09-08T03:50:01.981Z,100485.00
2018-09-08T03:52:30.257Z,100480.00
2018-09-08T03:54:58.527Z,100482.00
2018-09-08T03:57:26.597Z,100486.00
2018-09-08T03:59:54.678Z,100479.00
2018-09-08T04:02:22.755Z,100482.00
2018-09-08T04:04:53.527Z,100482.00
2018-09-08T04:07:23.710Z,100478.00
2018-09-08T04:09:53.916Z,100480.00
2018-09-08T04:12:24.594Z,100484.00
2018-09-08T04:14:55.053Z,100484.00
2018-09-08T04:17:25.660Z,100479.00
2018-09-08T04:19:56.171Z,100480.00
2018-09-08T04:22:31.059Z,100479.00
2018-09-08T04:25:01.570Z,100483.00
2018-09-08T04:27:32.181Z,100491.00
2018-09-08T04:30:02.410Z,100490.00
2018-09-08T04:32:32.568Z,100492.00
2018-09-08T04:35:02.821Z,100494.00
2018-09-08T04:37:33.763Z,100506.00
2018-09-08T04:40:04.095Z,100508.00
2018-09-08T04:42:34.304Z,100513.00
2018-09-08T04:45:04.488Z,100520.00
2018-09-08T04:47:35.148Z,100524.00
2018-09-08T04:50:05.339Z,100528.00
2018-09-08T04:52:35.534Z,100528.00
2018-09-08T04:55:06.269Z,100527.00
2018-09-08T04:57:36.679Z,100526.00
2018-09-08T05:00:08.281Z,100525.00
2018-09-08T05:02:38.797Z,100530.00
2018-09-08T05:05:09.344Z,100528.00
2018-09-08T05:07:39.966Z,100533.00
2018-09-08T05:10:10.097Z,100534.00
2018-09-08T05:12:40.820Z,100537.00
2018-09-08T05:15:11.074Z,100538.00
2018-09-08T05:17:41.266Z,100544.00
2018-09-08T05:20:11.855Z,100545.00
2018-09-08T05:22:42.530Z,100544.00
2018-09-08T05:25:13.126Z,100542.00
2018-09-08T05:27:43.797Z,100549.00
2018-09-08T05:30:13.941Z,100546.00
2018-09-08T05:32:44.638Z,100551.00
2018-09-08T05:35:15.418Z,100552.00
2018-09-08T05:37:46.437Z,100548.00
2018-09-08T05:40:16.625Z,100553.00
2018-09-08T05:42:47.480Z,100553.00
2018-09-08T05:45:17.645Z,100553.00
2018-09-08T05:47:48.246Z,100553.00
2018-09-08T05:50:18.876Z,100554.00
2018-09-08T05:52:49.688Z,100560.00
2018-09-08T05:55:20.327Z,100562.00
2018-09-08T05:57:51.053Z,100567.00
2018-09-08T06:00:21.233Z,100568.00
2018-09-08T06:02:51.450Z,100572.00
2018-09-08T06:05:21.549Z,100577.00
2018-09-08T06:07:52.005Z,100579.00
2018-09-08T06:10:22.278Z,100576.00
2018-09-08T06:12:52.761Z,100580.00
2018-09-08T06:15:22.903Z,100583.00
2018-09-08T06:17:55.269Z,100583.00
2018-09-08T06:20:25.495Z,100585.00
2018-09-08T06:22:56.409Z,100587.00
2018-09-08T06:25:26.802Z,100592.00
2018-09-08T06:27:57.026Z,100596.00
2018-09-08T06:30:28.277Z,100596.00
2018-09-08T06:33:15.587Z,100594.00
2018-09-08T06:35:45.908Z,100593.00
2018-09-08T06:38:16.216Z,100600.00
2018-09-08T06:40:46.392Z,100602.00
2018-09-08T06:43:17.401Z,100600.00
2018-09-08T06:45:47.565Z,100592.00
2018-09-08T06:48:17.940Z,100592.00
2018-09-08T06:50:48.066Z,100591.00
2018-09-08T06:53:18.288Z,100597.00
2018-09-08T06:55:48.393Z,100593.00
2018-09-08T06:58:20.085Z,100593.00
2018-09-08T07:00:50.291Z,100598.00
2018-09-08T07:03:21.504Z,100604.00
2018-09-08T07:05:51.626Z,100603.00
2018-09-08T07:08:22.237Z,100604.00
2018-09-08T07:10:53.295Z,100601.00
2018-09-08T07:13:23.554Z,100605.00
2018-09-08T07:15:53.827Z,100599.00
2018-09-08T07:18:24.191Z,100603.00
2018-09-08T07:20:54.897Z,100606.00
2018-09-08T07:23:25.369Z,100610.00
2018-09-08T07:25:55.617Z,100608.00
2018-09-08T07:28:26.241Z,100610.00
2018-09-08T07:30:57.027Z,100617.00
2018-09-08T07:33:27.473Z,100620.00
2018-09-08T07:35:58.062Z,100619.00
2018-09-08T07:38:28.535Z,100620.00
2018-09-08T07:41:28.148Z,100613.00
2018-09-08T07:44:11.100Z,100618.00
2018-09-08T07:46:41.641Z,100616.00
2018-09-08T07:49:11.944Z,100619.00
2018-09-08T07:51:42.295Z,100616.00
2018-09-08T07:54:12.896Z,100618.00
2018-09-08T07:56:43.195Z,100620.00
2018-09-08T07:59:13.759Z,100623.00
2018-09-08T08:01:44.025Z,100620.00
2018-09-08T08:04:14.631Z,100618.00
2018-09-08T08:06:47.283Z,100622.00
2018-09-08T08:09:17.505Z,100620.00
2018-09-08T08:11:48.314Z,100614.00
2018-09-08T08:14:18.478Z,100613.00
2018-09-08T08:16:48.605Z,100620.00
2018-09-08T08:19:18.781Z,100615.00
2018-09-08T08:21:48.985Z,100612.00
2018-09-08T08:24:19.230Z,100613.00
2018-09-08T08:26:58.171Z,100614.00
2018-09-08T08:29:28.543Z,100616.00
2018-09-08T08:31:58.921Z,100619.00
2018-09-08T08:34:29.410Z,100619.00
2018-09-08T08:37:11.101Z,100621.00
2018-09-08T08:39:41.497Z,100615.00
2018-09-08T08:42:12.142Z,100615.00
2018-09-08T08:44:42.820Z,100617.00
2018-09-08T08:47:13.294Z,100614.00
2018-09-08T08:49:43.927Z,100613.00
2018-09-08T08:52:30.576Z,100610.00
2018-09-08T08:55:04.779Z,100618.00
2018-09-08T08:57:35.245Z,100617.00
2018-09-08T09:00:05.557Z,100611.00
2018-09-08T09:02:35.736Z,100607.00
2018-09-08T09:05:06.005Z,100607.00
2018-09-08T09:07:36.396Z,100611.00
2018-09-08T09:10:06.573Z,100610.00
2018-09-08T09:12:36.992Z,100604.00
2018-09-08T09:15:07.560Z,100602.00
2018-09-08T09:17:37.265Z,100603.00
2018-09-08T09:20:23.638Z,100605.00
2018-09-08T09:23:11.177Z,100595.00
2018-09-08T09:25:41.386Z,100600.00
2018-09-08T09:28:11.550Z,100602.00
2018-09-08T09:30:41.903Z,100599.00
2018-09-08T09:33:12.040Z,100590.00
2018-09-08T09:35:42.257Z,100591.00
2018-09-08T09:38:12.482Z,100593.00
2018-09-08T09:40:42.982Z,100583.00
2018-09-08T09:43:13.351Z,100581.00
2018-09-08T09:45:44.203Z,100585.00
2018-09-08T09:48:14.594Z,100583.00
2018-09-08T09:50:44.991Z,100584.00
2018-09-08T09:53:15.299Z,100574.00
2018-09-08T09:55:45.602Z,100576.00
2018-09-08T09:58:15.781Z,100577.00
2018-09-08T10:00:50.866Z,100573.00
2018-09-08T10:03:21.138Z,100565.00
2018-09-08T10:05:51.436Z,100564.00
2018-09-08T10:08:21.585Z,100558.00
2018-09-08T10:10:51.850Z,100567.00
2018-09-08T10:13:22.135Z,100572.00
2018-09-08T10:15:52.513Z,100562.00
2018-09-08T10:18:22.950Z,100561.00
2018-09-08T10:20:53.401Z,100562.00
2018-09-08T10:23:23.732Z,100555.00
2018-09-08T10:25:54.316Z,100558.00
2018-09-08T10:28:24.737Z,100554.00
2018-09-08T10:30:55.642Z,100555.00
2018-09-08T10:33:25.873Z,100549.00
2018-09-08T10:35:56.244Z,100546.00
2018-09-08T10:38:26.501Z,100548.00
2018-09-08T10:40:56.814Z,100549.00
2018-09-08T10:43:27.944Z,100544.00
2018-09-08T10:45:58.415Z,100546.00
2018-09-08T10:48:28.891Z,100551.00
2018-09-08T10:51:08.575Z,100554.00
2018-09-08T10:53:38.743Z,100559.00
2018-09-08T10:56:09.274Z,100560.00
2018-09-08T10:58:39.666Z,100549.00
2018-09-08T11:01:10.214Z,100545.00
2018-09-08T11:03:40.446Z,100541.00
2018-09-08T11:06:10.667Z,100540.00
2018-09-08T11:08:40.920Z,100538.00
2018-09-08T11:11:13.401Z,100534.00
2018-09-08T11:13:43.546Z,100538.00
2018-09-08T11:16:13.736Z,100542.00
2018-09-08T11:18:43.985Z,100542.00
2018-09-08T11:21:14.233Z,100539.00
2018-09-08T11:23:44.440Z,100530.00
2018-09-08T11:26:15.101Z,100535.00
2018-09-08T11:28:45.389Z,100534.00
2018-09-08T11:31:16.607Z,100530.00
2018-09-08T11:33:47.562Z,100526.00
2018-09-08T11:36:17.874Z,100519.00
2018-09-08T11:38:48.112Z,100521.00
2018-09-08T11:41:18.265Z,100516.00
2018-09-08T11:43:48.432Z,100520.00
2018-09-08T11:46:18.573Z,100514.00
2018-09-08T11:48:48.708Z,100514.00
2018-09-08T11:51:18.829Z,100514.00
2018-09-08T11:53:49.116Z,100511.00
2018-09-08T11:56:19.273Z,100515.00
2018-09-08T11:58:49.616Z,100518.00
2018-09-08T12:01:20.117Z,100512.00
2018-09-08T12:03:50.732Z,100514.00
2018-09-08T12:06:21.021Z,100509.00
2018-09-08T12:08:51.502Z,100509.00
2018-09-08T12:11:21.651Z,100507.00
2018-09-08T12:13:52.069Z,100503.00
2018-09-08T12:16:22.190Z,100502.00
2018-09-08T12:18:52.990Z,100502.00
2018-09-08T12:21:23.563Z,100501.00
2018-09-08T12:23:53.795Z,100497.00
2018-09-08T12:26:24.783Z,100494.00
2018-09-08T12:28:57.181Z,100499.00
2018-09-08T12:31:27.485Z,100493.00
2018-09-08T12:33:57.835Z,100502.00
2018-09-08T12:36:29.744Z,100491.00
2018-09-08T12:39:00.739Z,100493.00
2018-09-08T12:41:32.294Z,100490.00
2018-09-08T12:44:04.250Z,100487.00
2018-09-08T12:46:34.976Z,100482.00
2018-09-08T12:49:05.518Z,100481.00
2018-09-08T12:51:36.070Z,100481.00
2018-09-08T12:54:07.101Z,100472.00
2018-09-08T12:56:37.371Z,100485.00
2018-09-08T12:59:07.909Z,100481.00
2018-09-08T13:01:38.507Z,100476.00
2018-09-08T13:04:09.538Z,100478.00
2018-09-08T13:06:40.238Z,100476.00
2018-09-08T13:09:10.733Z,100472.00
2018-09-08T13:11:41.031Z,100464.00
2018-09-08T13:14:11.448Z,100455.00
2018-09-08T13:16:41.895Z,100459.00
2018-09-08T13:19:12.038Z,100460.00
2018-09-08T13:21:42.270Z,100453.00
2018-09-08T13:24:12.475Z,100456.00
2018-09-08T13:26:43.117Z,100460.00
2018-09-08T13:29:13.464Z,100463.00
2018-09-08T13:31:43.621Z,100463.00
2018-09-08T13:34:13.933Z,100463.00
2018-09-08T13:36:49.029Z,100458.00
2018-09-08T13:39:19.285Z,100460.00
2018-09-08T13:41:49.568Z,100456.00
2018-09-08T13:44:19.886Z,100458.00
2018-09-08T13:46:50.379Z,100451.00
2018-09-08T13:49:20.513Z,100448.00
2018-09-08T13:51:50.752Z,100450.00
2018-09-08T13:54:21.554Z,100446.00
2018-09-08T13:56:51.769Z,100440.00
2018-09-08T13:59:21.933Z,100440.00
2018-09-08T14:01:52.153Z,100436.00
2018-09-08T14:04:22.321Z,100428.00
2018-09-08T14:06:52.548Z,100425.00
2018-09-08T14:09:22.776Z,100422.00
2018-09-08T14:11:53.122Z,100425.00
2018-09-08T14:14:23.334Z,100419.00
2018-09-08T14:16:53.495Z,100421.00
2018-09-08T14:19:23.658Z,100421.00
2018-09-08T14:21:53.999Z,100420.00
2018-09-08T14:24:25.240Z,100423.00
2018-09-08T14:26:59.610Z,100416.00
2018-09-08T14:29:43.792Z,100418.00
2018-09-08T14:32:14.099Z,100415.00
2018-09-08T14:34:44.348Z,100410.00
2018-09-08T14:37:16.478Z,100408.00
2018-09-08T14:39:47.112Z,100413.00
2018-09-08T14:42:17.389Z,100414.00
2018-09-08T14:44:47.645Z,100411.00
2018-09-08T14:47:18.098Z,100412.00
2018-09-08T14:49:48.763Z,100409.00
2018-09-08T14:52:19.149Z,100407.00
2018-09-08T14:54:50.542Z,100410.00
2018-09-08T14:57:20.800Z,100405.00
2018-09-08T14:59:50.989Z,100406.00
2018-09-08T15:02:21.115Z,100408.00
2018-09-08T15:04:57.127Z,100409.00
2018-09-08T15:07:30.767Z,100407.00
2018-09-08T15:10:11.123Z,100406.00
2018-09-08T15:12:42.940Z,100404.00
2018-09-08T15:15:13.385Z,100402.00
2018-09-08T15:17:43.993Z,100402.00
2018-09-08T15:20:14.418Z,100405.00
2018-09-08T15:22:44.781Z,100410.00
2018-09-08T16:32:15.690Z,100400.00
2018-09-08T16:34:57.890Z,100392.00
2018-09-08T16:37:28.437Z,100391.00
2018-09-08T16:43:48.633Z,100389.00
2018-09-08T17:42:56.910Z,100395.00
2018-09-08T17:45:27.555Z,100402.00
2018-09-08T17:51:25.220Z,100404.00
2018-09-08T17:53:55.665Z,100401.00
2018-09-08T17:56:43.104Z,100407.00
2018-09-08T17:59:13.503Z,100408.00
2018-09-08T18:04:43.535Z,100413.00
2018-09-08T18:07:17.021Z,100410.00
2018-09-08T18:09:52.898Z,100417.00
2018-09-08T18:12:24.968Z,100420.00
2018-09-08T18:15:48.103Z,100427.00
2018-09-08T18:18:25.788Z,100433.00
2018-09-08T18:20:56.664Z,100438.00
2018-09-08T18:23:27.665Z,100438.00
2018-09-08T18:25:58.250Z,100442.00
2018-09-08T18:28:30.050Z,100443.00
2018-09-08T18:31:00.831Z,100442.00
2018-09-08T18:33:31.410Z,100441.00
2018-09-08T18:42:11.964Z,100433.00
2018-09-08T18:44:42.804Z,100431.00
2018-09-08T18:47:13.505Z,100434.00
2018-09-08T18:49:44.437Z,100437.00
2018-09-08T18:52:42.621Z,100432.00
2018-09-08T18:55:29.498Z,100435.00
2018-09-08T18:58:00.106Z,100437.00
2018-09-08T19:00:30.810Z,100438.00
2018-09-08T19:03:01.497Z,100439.00
2018-09-08T19:05:32.293Z,100441.00
2018-09-08T19:08:21.441Z,100443.00
2018-09-08T19:11:00.741Z,100447.00
2018-09-08T19:13:31.452Z,100441.00
2018-09-08T19:16:03.000Z,100448.00
2018-09-08T19:18:36.017Z,100447.00
2018-09-08T19:21:06.587Z,100449.00
2018-09-08T19:23:57.200Z,100455.00
2018-09-08T19:26:27.857Z,100450.00
2018-09-08T19:29:04.875Z,100453.00
2018-09-08T19:31:55.992Z,100458.00
2018-09-08T19:34:50.283Z,100453.00
2018-09-08T19:37:25.686Z,100451.00
2018-09-08T19:39:56.681Z,100454.00
2018-09-08T19:42:28.289Z,100452.00
2018-09-08T19:44:58.946Z,100448.00
2018-09-08T19:47:34.354Z,100446.00
2018-09-08T19:50:04.738Z,100445.00
2018-09-08T19:52:40.218Z,100443.00
2018-09-08T19:55:10.903Z,100441.00
2018-09-08T19:57:46.512Z,100444.00
2018-09-08T20:00:27.365Z,100446.00
2018-09-08T20:02:57.978Z,100447.00
2018-09-08T20:05:28.524Z,100446.00
2018-09-08T20:07:59.601Z,100443.00
2018-09-08T20:10:41.135Z,100447.00
2018-09-08T20:13:12.153Z,100451.00
2018-09-08T20:15:43.175Z,100462.00
2018-09-08T20:18:13.574Z,100459.00
2018-09-08T20:20:44.066Z,100463.00
2018-09-08T20:23:14.545Z,100466.00
2018-09-08T20:25:45.006Z,100465.00
2018-09-08T20:28:15.543Z,100469.00
2018-09-08T20:30:46.317Z,100473.00
2018-09-08T20:33:17.590Z,100473.00
2018-09-08T20:35:48.427Z,100470.00
2018-09-08T20:38:18.788Z,100467.00
2018-09-08T20:40:49.254Z,100463.00
2018-09-08T20:43:19.654Z,100462.00
2018-09-08T20:45:50.240Z,100463.00
2018-09-08T20:48:20.628Z,100462.00
2018-09-08T20:50:51.147Z,100464.00
2018-09-08T20:53:21.737Z,100466.00
2018-09-08T20:55:52.258Z,100465.00
2018-09-08T20:58:22.671Z,100462.00
2018-09-08T21:00:53.350Z,100466.00
2018-09-08T21:03:23.874Z,100469.00
2018-09-08T21:05:54.480Z,100473.00
2018-09-08T21:08:24.837Z,100478.00
2018-09-08T21:10:55.402Z,100475.00
2018-09-08T21:13:25.869Z,100474.00
2018-09-08T21:15:56.685Z,100470.00
2018-09-08T21:18:27.313Z,100473.00
2018-09-08T21:20:57.939Z,100473.00
2018-09-08T21:23:28.745Z,100471.00
2018-09-08T21:25:59.242Z,100470.00
2018-09-08T21:28:29.696Z,100470.00
2018-09-08T21:31:00.188Z,100468.00
2018-09-08T21:33:30.579Z,100468.00
2018-09-08T21:36:01.110Z,100466.00
2018-09-08T21:38:31.726Z,100463.00
2018-09-08T21:41:02.182Z,100460.00
2018-09-08T21:43:32.542Z,100463.00
2018-09-08T21:46:02.954Z,100465.00
2018-09-08T21:48:33.283Z,100468.00
2018-09-08T21:51:03.849Z,100475.00
2018-09-08T21:53:34.251Z,100477.00
2018-09-08T21:56:04.735Z,100478.00
2018-09-08T21:58:35.101Z,100482.00
2018-09-08T22:01:10.538Z,100483.00
2018-09-08T22:03:40.955Z,100477.00
2018-09-08T22:06:11.382Z,100484.00
2018-09-08T22:08:41.693Z,100484.00
2018-09-08T22:11:12.371Z,100485.00
2018-09-08T22:13:42.752Z,100487.00
2018-09-08T22:16:13.599Z,100483.00
2018-09-08T22:18:43.882Z,100488.00
2018-09-08T22:21:14.430Z,100488.00
2018-09-08T22:23:44.765Z,100489.00
2018-09-08T22:26:15.479Z,100497.00
2018-09-08T22:28:45.773Z,100496.00
2018-09-08T22:31:16.098Z,100503.00
2018-09-08T22:33:46.633Z,100503.00
2018-09-08T22:36:17.168Z,100506.00
2018-09-08T22:38:47.673Z,100513.00
2018-09-08T22:41:18.156Z,100509.00
2018-09-08T22:43:48.589Z,100513.00
2018-09-08T22:46:18.843Z,100516.00
2018-09-08T22:48:49.154Z,100520.00
2018-09-08T22:51:19.449Z,100513.00
2018-09-08T22:53:50.041Z,100507.00
2018-09-08T22:56:20.427Z,100501.00
2018-09-08T22:58:50.884Z,100506.00
2018-09-08T23:01:21.194Z,100504.00
2018-09-08T23:03:51.862Z,100502.00
2018-09-08T23:06:22.200Z,100507.00
2018-09-08T23:08:52.577Z,100515.00
2018-09-08T23:11:22.912Z,100513.00
2018-09-08T23:13:53.425Z,100509.00
2018-09-08T23:16:23.787Z,100510.00
2018-09-08T23:18:54.412Z,100505.00
2018-09-08T23:21:24.763Z,100510.00
2018-09-08T23:23:55.069Z,100508.00
2018-09-08T23:26:25.310Z,100508.00
2018-09-08T23:28:55.613Z,100503.00
2018-09-08T23:31:25.970Z,100502.00
2018-09-08T23:33:56.261Z,100504.00
2018-09-08T23:36:26.666Z,100513.00
2018-09-08T23:38:56.933Z,100518.00
2018-09-08T23:41:27.225Z,100515.00
2018-09-08T23:43:57.667Z,100516.00
2018-09-08T23:46:27.914Z,100523.00
2018-09-08T23:48:58.268Z,100523.00
2018-09-08T23:51:28.603Z,100533.00
2018-09-08T23:53:59.057Z,100530.00
2018-09-08T23:56:29.495Z,100531.00
2018-09-08T23:58:59.817Z,100531.00
